Time;durP1;ratioP1;P1;durP2;ratioP2;P2;SDS_P1;SDS_P2;PMS_P1;PMS_P2;Temp;Humidity;BMP_temperature;BMP_pressure;BME280_temperature;BME280_humidity;BME280_pressure;Samples;Min_cycle;Max_cycle;Signal;HPM_P1;HPM_P2
2024/01/22 00:02:11;;;;;;;6.95;6.25;;;;;;;;;;10189119;28;20048;-71
2024/01/22 00:07:03;;;;;;;8.43;5.40;;;;;;;;;;10189931;28;20055;-71
2024/01/22 00:11:54;;;;;;;6.18;5.35;;;;;;;;;;10188223;28;20451;-72
2024/01/22 00:16:47;;;;;;;6.75;6.10;;;;;;;;;;10188187;28;20055;-73
2024/01/22 00:21:42;;;;;;;6.53;5.85;;;;;;;;;;10187984;28;20044;-71
2024/01/22 00:26:34;;;;;;;6.28;5.65;;;;;;;;;;10187756;28;20054;-71
2024/01/22 00:31:26;;;;;;;5.95;5.35;;;;;;;;;;10187025;28;20044;-70
2024/01/22 00:36:18;;;;;;;6.53;5.22;;;;;;;;;;10187539;28;20112;-71
2024/01/22 00:41:10;;;;;;;6.85;6.07;;;;;;;;;;10187489;28;20097;-71
2024/01/22 00:46:02;;;;;;;5.68;5.10;;;;;;;;;;10186075;28;20055;-72
2024/01/22 00:50:54;;;;;;;6.18;5.57;;;;;;;;;;10186585;28;20047;-71
2024/01/22 00:55:47;;;;;;;7.53;6.82;;;;;;;;;;10186629;28;20048;-71
2024/01/22 01:00:38;;;;;;;5.47;4.90;;;;;;;;;;10186861;28;20071;-71
2024/01/22 01:05:30;;;;;;;4.95;4.55;;;;;;;;;;10186675;28;20052;-71
2024/01/22 01:10:22;;;;;;;4.90;4.50;;;;;;;;;;10172057;28;20094;-71
2024/01/22 01:15:14;;;;;;;6.07;5.43;;;;;;;;;;10146307;28;20047;-71
2024/01/22 01:20:07;;;;;;;7.20;6.45;;;;;;;;;;10148797;28;20044;-71
2024/01/22 01:24:59;;;;;;;5.68;5.07;;;;;;;;;;10148512;28;20049;-70
2024/01/22 01:29:52;;;;;;;6.28;5.25;;;;;;;;;;10146103;28;20044;-71
2024/01/22 01:34:44;;;;;;;5.65;5.15;;;;;;;;;;10146127;28;20394;-71
2024/01/22 01:39:37;;;;;;;6.40;5.80;;;;;;;;;;10147186;28;20044;-72
2024/01/22 01:44:37;;;;;;;5.95;5.35;;;;;;;;;;10146220;28;20075;-73
2024/01/22 01:49:30;;;;;;;5.90;5.38;;;;;;;;;;10146059;28;20089;-70
2024/01/22 01:54:26;;;;;;;6.50;5.90;;;;;;;;;;10144667;28;20053;-73
2024/01/22 01:59:19;;;;;;;6.40;5.88;;;;;;;;;;10145645;28;20070;-70
2024/01/22 02:04:11;;;;;;;7.75;6.63;;;;;;;;;;10145295;28;20387;-70
2024/01/22 02:09:03;;;;;;;8.38;6.00;;;;;;;;;;10145166;28;20056;-70
2024/01/22 02:13:55;;;;;;;6.20;5.47;;;;;;;;;;10149542;28;20064;-72
2024/01/22 02:18:47;;;;;;;7.75;6.10;;;;;;;;;;10145902;28;20087;-70
2024/01/22 02:23:40;;;;;;;6.47;5.82;;;;;;;;;;10145165;28;20122;-70
2024/01/22 02:28:32;;;;;;;6.90;6.20;;;;;;;;;;10145002;28;20534;-73
2024/01/22 02:33:25;;;;;;;7.38;6.53;;;;;;;;;;10144603;28;20049;-70
2024/01/22 02:38:17;;;;;;;7.57;6.80;;;;;;;;;;10152325;28;20040;-70
2024/01/22 02:43:08;;;;;;;7.72;6.38;;;;;;;;;;10152889;28;20068;-71
2024/01/22 02:48:00;;;;;;;6.57;6.03;;;;;;;;;;10152144;28;20147;-70
2024/01/22 02:52:52;;;;;;;5.90;5.35;;;;;;;;;;10151533;28;20447;-70
2024/01/22 02:57:44;;;;;;;5.03;4.53;;;;;;;;;;10151810;28;20141;-71
2024/01/22 03:02:37;;;;;;;5.88;5.30;;;;;;;;;;10153387;28;20048;-71
2024/01/22 03:07:29;;;;;;;5.85;4.70;;;;;;;;;;10151285;28;20139;-70
2024/01/22 03:12:21;;;;;;;5.20;4.70;;;;;;;;;;10151276;28;20040;-70
2024/01/22 03:17:13;;;;;;;6.00;5.43;;;;;;;;;;10151258;28;20044;-73
2024/01/22 03:22:05;;;;;;;6.20;5.13;;;;;;;;;;10151351;28;20150;-71
2024/01/22 03:26:56;;;;;;;6.68;5.63;;;;;;;;;;10150931;28;20071;-73
2024/01/22 03:31:49;;;;;;;5.07;4.57;;;;;;;;;;10151696;28;20143;-70
2024/01/22 03:36:41;;;;;;;5.65;5.03;;;;;;;;;;10151262;28;20051;-71
2024/01/22 03:41:33;;;;;;;6.22;5.10;;;;;;;;;;10151219;28;20409;-73
2024/01/22 03:46:25;;;;;;;5.97;5.10;;;;;;;;;;10151044;28;20095;-70
2024/01/22 03:51:17;;;;;;;7.28;5.53;;;;;;;;;;10150876;28;20344;-70
2024/01/22 03:56:09;;;;;;;5.47;4.35;;;;;;;;;;10151457;28;20075;-71
2024/01/22 04:01:01;;;;;;;5.60;4.93;;;;;;;;;;10148767;28;20433;-71
2024/01/22 04:05:54;;;;;;;5.60;5.03;;;;;;;;;;10150428;28;20087;-70
2024/01/22 04:10:46;;;;;;;5.63;5.13;;;;;;;;;;10149046;28;20491;-71
2024/01/22 04:15:37;;;;;;;5.90;4.63;;;;;;;;;;10149928;28;20114;-70
2024/01/22 04:20:29;;;;;;;5.95;5.43;;;;;;;;;;10153590;28;20082;-70
2024/01/22 04:25:21;;;;;;;6.28;5.53;;;;;;;;;;10148106;28;20040;-71
2024/01/22 04:30:13;;;;;;;7.88;5.72;;;;;;;;;;10148462;28;20048;-70
2024/01/22 04:35:06;;;;;;;5.95;5.35;;;;;;;;;;10149124;28;20123;-70
2024/01/22 04:40:11;;;;;;;5.90;4.95;;;;;;;;;;10148409;28;20431;-71
2024/01/22 04:45:04;;;;;;;6.95;5.63;;;;;;;;;;10147090;28;20091;-71
2024/01/22 04:49:56;;;;;;;6.63;5.15;;;;;;;;;;10148595;28;20040;-70
2024/01/22 04:54:47;;;;;;;6.00;5.50;;;;;;;;;;10147278;28;20541;-70
2024/01/22 04:59:39;;;;;;;5.82;5.28;;;;;;;;;;10145978;28;20068;-71
2024/01/22 05:04:31;;;;;;;7.93;5.55;;;;;;;;;;10148216;28;20040;-70
2024/01/22 05:09:23;;;;;;;5.80;5.25;;;;;;;;;;10147106;28;20048;-70
2024/01/22 05:14:15;;;;;;;5.47;4.97;;;;;;;;;;10147230;28;20044;-70
2024/01/22 05:19:07;;;;;;;5.88;4.90;;;;;;;;;;10151393;28;20090;-71
2024/01/22 05:23:59;;;;;;;6.07;5.03;;;;;;;;;;10147189;28;20060;-70
2024/01/22 05:28:51;;;;;;;5.63;5.05;;;;;;;;;;10146795;28;20056;-70
2024/01/22 05:33:43;;;;;;;18.95;15.25;;;;;;;;;;10145408;28;20078;-70
2024/01/22 05:38:42;;;;;;;8.55;7.65;;;;;;;;;;10150891;28;20059;-70
2024/01/22 05:43:35;;;;;;;135.60;83.95;;;;;;;;;;10146302;28;20675;-70
2024/01/22 05:48:27;;;;;;;19.02;13.50;;;;;;;;;;10143362;28;20052;-71
2024/01/22 05:53:19;;;;;;;24.38;21.85;;;;;;;;;;10147192;28;20036;-70
2024/01/22 05:58:11;;;;;;;21.63;14.63;;;;;;;;;;10145985;28;20064;-70
2024/01/22 06:03:03;;;;;;;42.10;25.83;;;;;;;;;;10144784;28;20032;-70
2024/01/22 06:07:55;;;;;;;23.20;15.75;;;;;;;;;;10145919;28;20501;-72
2024/01/22 06:12:47;;;;;;;29.42;17.10;;;;;;;;;;10146440;28;20091;-70
2024/01/22 06:17:39;;;;;;;74.57;44.70;;;;;;;;;;10144404;28;20041;-70
2024/01/22 06:22:33;;;;;;;7.45;6.65;;;;;;;;;;10146413;28;20036;-70
2024/01/22 06:27:25;;;;;;;32.08;21.52;;;;;;;;;;10144425;28;20044;-70
2024/01/22 06:32:18;;;;;;;26.60;15.63;;;;;;;;;;10145021;28;20040;-70
2024/01/22 06:37:10;;;;;;;59.00;37.42;;;;;;;;;;10145647;28;20155;-70
2024/01/22 06:42:02;;;;;;;80.57;42.85;;;;;;;;;;10165890;28;20132;-70
2024/01/22 06:46:54;;;;;;;13.98;10.35;;;;;;;;;;10181977;28;20119;-70
2024/01/22 06:51:47;;;;;;;21.90;13.32;;;;;;;;;;10183220;28;20050;-70
2024/01/22 06:56:40;;;;;;;49.13;30.98;;;;;;;;;;10169033;28;20040;-69
2024/01/22 07:01:32;;;;;;;4.28;3.53;;;;;;;;;;10182757;28;20048;-69
2024/01/22 07:06:23;;;;;;;4.97;4.47;;;;;;;;;;10168417;28;20530;-70
2024/01/22 07:11:16;;;;;;;8.48;6.75;;;;;;;;;;10182456;28;20048;-69
2024/01/22 07:16:08;;;;;;;8.15;6.78;;;;;;;;;;10182221;28;20470;-72
2024/01/22 07:21:00;;;;;;;11.65;7.20;;;;;;;;;;10182720;28;20041;-70
2024/01/22 07:25:55;;;;;;;4.43;4.03;;;;;;;;;;10183220;28;20534;-68
2024/01/22 07:30:47;;;;;;;3.55;3.25;;;;;;;;;;10185613;28;20055;-69
2024/01/22 07:35:39;;;;;;;5.47;4.20;;;;;;;;;;10185598;28;20044;-69
2024/01/22 07:40:31;;;;;;;6.70;3.70;;;;;;;;;;10189104;28;20051;-69
2024/01/22 07:45:23;;;;;;;14.45;11.45;;;;;;;;;;10164707;28;20057;-69
2024/01/22 07:50:16;;;;;;;30.02;26.65;;;;;;;;;;10151516;28;20471;-70
2024/01/22 07:55:11;;;;;;;48.17;35.05;;;;;;;;;;10150786;28;20053;-69
2024/01/22 08:00:03;;;;;;;12.63;6.47;;;;;;;;;;10151367;28;20451;-69
2024/01/22 08:04:57;;;;;;;5.80;4.45;;;;;;;;;;10150505;28;20049;-70
2024/01/22 08:09:49;;;;;;;6.00;4.72;;;;;;;;;;10150788;28;20378;-70
2024/01/22 08:14:42;;;;;;;11.82;7.50;;;;;;;;;;10150089;28;20493;-71
2024/01/22 08:19:34;;;;;;;14.25;10.25;;;;;;;;;;10150294;28;20064;-70
2024/01/22 08:24:26;;;;;;;8.27;7.03;;;;;;;;;;10151327;28;20467;-70
2024/01/22 08:29:18;;;;;;;9.35;6.78;;;;;;;;;;10148681;28;20052;-70
2024/01/22 08:34:10;;;;;;;6.18;5.43;;;;;;;;;;10148404;28;20072;-71
2024/01/22 08:39:02;;;;;;;9.50;6.82;;;;;;;;;;10149911;28;20037;-71
2024/01/22 08:43:55;;;;;;;7.53;5.82;;;;;;;;;;10147781;28;20048;-71
2024/01/22 08:48:49;;;;;;;6.68;6.15;;;;;;;;;;10131324;28;20414;-71
2024/01/22 08:53:41;;;;;;;6.22;5.68;;;;;;;;;;10150429;28;20513;-70
2024/01/22 08:58:33;;;;;;;5.90;5.38;;;;;;;;;;10148638;28;20151;-71
2024/01/22 09:03:25;;;;;;;6.28;5.75;;;;;;;;;;10148732;28;20090;-70
2024/01/22 09:08:18;;;;;;;5.35;4.85;;;;;;;;;;10147315;28;20099;-71
2024/01/22 09:13:09;;;;;;;5.60;4.70;;;;;;;;;;10147541;28;20036;-70
2024/01/22 09:18:01;;;;;;;5.63;5.13;;;;;;;;;;10147929;28;20037;-71
2024/01/22 09:22:54;;;;;;;5.07;4.57;;;;;;;;;;10147821;28;20105;-70
2024/01/22 09:27:49;;;;;;;5.22;4.43;;;;;;;;;;10147643;28;20094;-71
2024/01/22 09:32:40;;;;;;;6.05;5.65;;;;;;;;;;10147696;28;20036;-71
2024/01/22 09:37:33;;;;;;;8.10;4.57;;;;;;;;;;10146919;28;20442;-70
2024/01/22 09:42:26;;;;;;;4.35;4.05;;;;;;;;;;10147851;28;20097;-71
2024/01/22 09:47:19;;;;;;;4.53;4.13;;;;;;;;;;10146016;28;20045;-71
2024/01/22 09:52:18;;;;;;;5.20;4.70;;;;;;;;;;10145982;28;20051;-70
2024/01/22 09:57:17;;;;;;;8.48;4.85;;;;;;;;;;10147090;28;20467;-70
2024/01/22 10:02:16;;;;;;;5.00;4.18;;;;;;;;;;10145900;28;20480;-70
2024/01/22 10:07:09;;;;;;;4.87;4.20;;;;;;;;;;10146498;28;20071;-71
2024/01/22 10:12:02;;;;;;;5.07;4.57;;;;;;;;;;10145696;28;20529;-71
2024/01/22 10:16:54;;;;;;;10.35;7.00;;;;;;;;;;10146287;28;20049;-71
2024/01/22 10:21:46;;;;;;;6.53;4.85;;;;;;;;;;10146206;28;20467;-71
2024/01/22 10:26:39;;;;;;;7.90;6.65;;;;;;;;;;10146738;28;20039;-71
2024/01/22 10:31:31;;;;;;;7.38;6.55;;;;;;;;;;10145953;28;20403;-71
2024/01/22 10:36:23;;;;;;;10.50;8.15;;;;;;;;;;10145614;28;20094;-71
2024/01/22 10:41:19;;;;;;;11.52;7.85;;;;;;;;;;10147775;28;20049;-70
2024/01/22 10:46:12;;;;;;;8.60;7.53;;;;;;;;;;10146171;28;20376;-71
2024/01/22 10:51:05;;;;;;;12.38;9.23;;;;;;;;;;10146708;28;20132;-70
2024/01/22 10:56:00;;;;;;;13.82;11.70;;;;;;;;;;10146211;28;20079;-71
2024/01/22 11:00:57;;;;;;;15.90;12.82;;;;;;;;;;10153410;28;20040;-71
2024/01/22 11:05:51;;;;;;;15.88;13.07;;;;;;;;;;10153118;28;20463;-71
2024/01/22 11:10:47;;;;;;;16.77;13.48;;;;;;;;;;10136080;28;20049;-70
2024/01/22 11:15:39;;;;;;;16.25;13.38;;;;;;;;;;10151543;28;20055;-71
2024/01/22 11:20:32;;;;;;;14.65;12.20;;;;;;;;;;10134631;28;20479;-70
2024/01/22 11:25:24;;;;;;;15.93;12.65;;;;;;;;;;10133983;28;20445;-70
2024/01/22 11:30:25;;;;;;;20.15;14.52;;;;;;;;;;10153037;28;20486;-71
2024/01/22 11:35:37;;;;;;;17.70;13.70;;;;;;;;;;10152604;28;20149;-70
2024/01/22 11:41:02;;;;;;;16.63;13.35;;;;;;;;;;10152995;28;20138;-70
2024/01/22 11:45:56;;;;;;;18.15;13.55;;;;;;;;;;10105900;28;22052;-70
2024/01/22 11:51:01;;;;;;;16.77;13.48;;;;;;;;;;10152020;28;20154;-71
2024/01/22 11:56:01;;;;;;;17.20;12.80;;;;;;;;;;10150867;28;20052;-71
2024/01/22 12:00:53;;;;;;;17.73;14.00;;;;;;;;;;10149986;28;20057;-71
2024/01/22 12:05:45;;;;;;;18.35;12.38;;;;;;;;;;10151906;28;20117;-71
2024/01/22 12:10:37;;;;;;;16.23;14.55;;;;;;;;;;10151124;28;20043;-71
2024/01/22 12:15:31;;;;;;;18.13;13.35;;;;;;;;;;10149414;28;20040;-70
2024/01/22 12:20:25;;;;;;;14.75;13.00;;;;;;;;;;10149858;28;20072;-70
2024/01/22 12:25:17;;;;;;;16.55;12.35;;;;;;;;;;10149472;28;20067;-71
2024/01/22 12:30:14;;;;;;;17.35;14.13;;;;;;;;;;10147970;28;20052;-70
2024/01/22 12:35:06;;;;;;;17.30;12.52;;;;;;;;;;10149637;28;20036;-70
2024/01/22 12:40:15;;;;;;;17.92;13.27;;;;;;;;;;10149125;28;20037;-70
2024/01/22 12:45:11;;;;;;;18.20;13.05;;;;;;;;;;10148929;28;20804;-70
2024/01/22 12:50:04;;;;;;;17.33;12.43;;;;;;;;;;10148463;28;20053;-71
2024/01/22 12:54:57;;;;;;;15.20;13.57;;;;;;;;;;10147673;28;20050;-71
2024/01/22 12:59:49;;;;;;;14.18;12.65;;;;;;;;;;10148367;28;20056;-71
2024/01/22 13:04:42;;;;;;;15.68;13.88;;;;;;;;;;10148260;28;20056;-70
2024/01/22 13:09:34;;;;;;;17.58;13.43;;;;;;;;;;10147376;28;20047;-71
2024/01/22 13:14:26;;;;;;;19.33;14.35;;;;;;;;;;10149026;28;20408;-70
2024/01/22 13:19:21;;;;;;;17.90;14.07;;;;;;;;;;10146241;28;20426;-71
2024/01/22 13:24:13;;;;;;;16.52;12.95;;;;;;;;;;10148204;28;20106;-70
2024/01/22 13:29:05;;;;;;;15.57;13.88;;;;;;;;;;10148812;28;20082;-71
2024/01/22 13:33:57;;;;;;;21.20;14.88;;;;;;;;;;10147034;28;20040;-71
2024/01/22 13:38:49;;;;;;;18.98;15.23;;;;;;;;;;10151404;28;20071;-71
2024/01/22 13:43:42;;;;;;;21.42;14.80;;;;;;;;;;10162742;28;20131;-71
2024/01/22 13:48:34;;;;;;;23.55;14.82;;;;;;;;;;10150220;28;20132;-71
2024/01/22 13:53:26;;;;;;;20.15;13.45;;;;;;;;;;10147532;28;20036;-70
2024/01/22 13:58:18;;;;;;;16.95;13.00;;;;;;;;;;10143778;28;20052;-71
2024/01/22 14:03:10;;;;;;;21.77;15.15;;;;;;;;;;10155636;28;20067;-70
2024/01/22 14:08:02;;;;;;;16.20;13.00;;;;;;;;;;10154043;28;20047;-70
2024/01/22 14:12:54;;;;;;;23.23;13.50;;;;;;;;;;10150555;28;20515;-71
2024/01/22 14:17:48;;;;;;;21.45;13.85;;;;;;;;;;10145250;28;20093;-70
2024/01/22 14:22:40;;;;;;;18.20;13.43;;;;;;;;;;10149874;28;20047;-71
2024/01/22 14:27:34;;;;;;;19.85;15.25;;;;;;;;;;10144718;28;20102;-70
2024/01/22 14:32:28;;;;;;;26.33;15.40;;;;;;;;;;10166332;28;20131;-71
2024/01/22 14:37:20;;;;;;;19.40;14.93;;;;;;;;;;10166127;28;20045;-71
2024/01/22 14:42:12;;;;;;;18.95;14.50;;;;;;;;;;10178521;28;20048;-70
2024/01/22 14:47:05;;;;;;;20.20;13.85;;;;;;;;;;10158251;28;20094;-70
2024/01/22 14:51:57;;;;;;;19.85;15.57;;;;;;;;;;10162938;28;20428;-71
2024/01/22 14:56:50;;;;;;;19.80;15.20;;;;;;;;;;10182012;28;20051;-71
2024/01/22 15:01:42;;;;;;;23.83;14.63;;;;;;;;;;10167445;28;20119;-71
2024/01/22 15:06:34;;;;;;;19.70;15.38;;;;;;;;;;10165981;28;20060;-71
2024/01/22 15:11:26;;;;;;;26.70;15.07;;;;;;;;;;10162308;28;20043;-71
2024/01/22 15:16:18;;;;;;;24.70;16.13;;;;;;;;;;10158264;28;20379;-71
2024/01/22 15:21:10;;;;;;;24.55;16.52;;;;;;;;;;10154662;28;20052;-70
2024/01/22 15:26:03;;;;;;;22.40;15.02;;;;;;;;;;10167060;28;20071;-72
2024/01/22 15:30:56;;;;;;;18.13;14.93;;;;;;;;;;10151953;28;20131;-72
2024/01/22 15:35:48;;;;;;;23.65;17.50;;;;;;;;;;10163566;28;20052;-71
2024/01/22 15:40:41;;;;;;;18.65;15.05;;;;;;;;;;10151309;28;20040;-71
2024/01/22 15:45:32;;;;;;;28.63;17.35;;;;;;;;;;10166894;28;20053;-71
2024/01/22 15:50:28;;;;;;;22.00;16.45;;;;;;;;;;10152861;28;20040;-70
2024/01/22 15:55:19;;;;;;;19.08;16.45;;;;;;;;;;10159182;28;20040;-70
2024/01/22 16:00:12;;;;;;;27.50;17.65;;;;;;;;;;10151260;28;20447;-71
2024/01/22 16:05:05;;;;;;;25.45;18.05;;;;;;;;;;10160121;28;20068;-71
2024/01/22 16:09:57;;;;;;;22.27;17.52;;;;;;;;;;10152321;28;20171;-71
2024/01/22 16:14:49;;;;;;;38.78;32.05;;;;;;;;;;10154728;28;20471;-71
2024/01/22 16:19:41;;;;;;;24.83;18.50;;;;;;;;;;10152151;28;20474;-71
2024/01/22 16:24:33;;;;;;;39.03;25.77;;;;;;;;;;10157267;28;20324;-70
2024/01/22 16:29:27;;;;;;;51.38;34.45;;;;;;;;;;10155316;28;20066;-71
2024/01/22 16:34:20;;;;;;;34.03;23.50;;;;;;;;;;10159841;28;20047;-71
2024/01/22 16:39:15;;;;;;;35.33;19.08;;;;;;;;;;10159472;28;20072;-71
2024/01/22 16:44:07;;;;;;;61.20;41.90;;;;;;;;;;10160987;28;20127;-71
2024/01/22 16:49:00;;;;;;;54.90;41.47;;;;;;;;;;10154658;28;20138;-71
2024/01/22 16:53:52;;;;;;;67.50;43.90;;;;;;;;;;10148876;28;20391;-70
2024/01/22 16:58:44;;;;;;;27.63;20.75;;;;;;;;;;10161185;28;20036;-70
2024/01/22 17:03:37;;;;;;;21.85;17.52;;;;;;;;;;10154653;28;20044;-70
2024/01/22 17:08:29;;;;;;;54.75;41.80;;;;;;;;;;10146081;28;20140;-70
2024/01/22 17:13:21;;;;;;;22.95;16.42;;;;;;;;;;10146390;28;20045;-70
2024/01/22 17:18:13;;;;;;;40.55;29.83;;;;;;;;;;10147267;28;20531;-70
2024/01/22 17:23:05;;;;;;;126.85;84.95;;;;;;;;;;10156384;28;20101;-71
2024/01/22 17:27:57;;;;;;;117.95;90.07;;;;;;;;;;10146680;28;20048;-70
2024/01/22 17:32:49;;;;;;;34.40;24.52;;;;;;;;;;10147674;28;20106;-70
2024/01/22 17:37:42;;;;;;;22.67;13.95;;;;;;;;;;10146800;28;20035;-70
2024/01/22 17:42:34;;;;;;;52.10;32.08;;;;;;;;;;10131659;28;20028;-70
2024/01/22 17:47:29;;;;;;;42.42;26.35;;;;;;;;;;10147088;28;20090;-70
2024/01/22 17:52:21;;;;;;;79.25;48.55;;;;;;;;;;10147698;28;20923;-70
2024/01/22 17:57:14;;;;;;;21.00;14.77;;;;;;;;;;10153149;28;20131;-71
2024/01/22 18:02:08;;;;;;;110.65;59.58;;;;;;;;;;10145014;28;20445;-70
2024/01/22 18:07:00;;;;;;;14.63;10.57;;;;;;;;;;10146940;28;20052;-70
2024/01/22 18:11:53;;;;;;;120.10;61.13;;;;;;;;;;10145413;28;20114;-70
2024/01/22 18:16:45;;;;;;;50.65;29.27;;;;;;;;;;10149191;28;20075;-70
2024/01/22 18:21:37;;;;;;;183.65;102.47;;;;;;;;;;10144791;28;20049;-70
2024/01/22 18:26:29;;;;;;;75.22;44.13;;;;;;;;;;10146254;28;20483;-70
2024/01/22 18:31:21;;;;;;;143.40;74.47;;;;;;;;;;10145923;28;20056;-71
2024/01/22 18:36:16;;;;;;;92.38;49.53;;;;;;;;;;10145506;28;20045;-70
2024/01/22 18:41:08;;;;;;;17.67;13.68;;;;;;;;;;10145418;28;20132;-70
2024/01/22 18:46:00;;;;;;;27.52;15.13;;;;;;;;;;10148936;28;20051;-70
2024/01/22 18:51:04;;;;;;;12.43;9.10;;;;;;;;;;10144796;28;20059;-70
2024/01/22 18:55:56;;;;;;;7.57;6.80;;;;;;;;;;10148137;28;20151;-70
2024/01/22 19:00:48;;;;;;;10.23;5.78;;;;;;;;;;10144838;28;20106;-70
2024/01/22 19:05:40;;;;;;;6.63;4.53;;;;;;;;;;10145561;28;20471;-70
2024/01/22 19:10:32;;;;;;;4.63;4.18;;;;;;;;;;10143548;28;20125;-70
2024/01/22 19:15:24;;;;;;;12.63;8.80;;;;;;;;;;10151184;28;20040;-70
2024/01/22 19:20:16;;;;;;;9.23;7.43;;;;;;;;;;10152515;28;20487;-71
2024/01/22 19:25:08;;;;;;;5.28;4.78;;;;;;;;;;10154305;28;20489;-70
2024/01/22 19:30:00;;;;;;;5.03;4.53;;;;;;;;;;10151265;28;20052;-70
2024/01/22 19:34:52;;;;;;;4.82;4.35;;;;;;;;;;10153565;28;20041;-71
2024/01/22 19:39:45;;;;;;;4.95;4.03;;;;;;;;;;10152024;28;20534;-70
2024/01/22 19:44:37;;;;;;;6.93;5.53;;;;;;;;;;10151105;28;20495;-70
2024/01/22 19:49:29;;;;;;;13.18;7.65;;;;;;;;;;10163733;28;20090;-71
2024/01/22 19:54:21;;;;;;;4.72;4.07;;;;;;;;;;10157604;28;20471;-70
2024/01/22 19:59:13;;;;;;;3.50;3.20;;;;;;;;;;10180016;28;20366;-71
2024/01/22 20:04:06;;;;;;;4.78;3.83;;;;;;;;;;10188254;28;20059;-70
2024/01/22 20:08:58;;;;;;;6.38;4.95;;;;;;;;;;10186423;28;20044;-70
2024/01/22 20:13:50;;;;;;;5.57;4.18;;;;;;;;;;10185668;28;20064;-70
2024/01/22 20:18:42;;;;;;;5.50;4.63;;;;;;;;;;10188134;28;20390;-70
2024/01/22 20:23:34;;;;;;;5.88;4.90;;;;;;;;;;10186582;28;20147;-71
2024/01/22 20:28:26;;;;;;;4.53;3.25;;;;;;;;;;10186575;28;20040;-70
2024/01/22 20:33:18;;;;;;;3.58;2.90;;;;;;;;;;10187794;28;20132;-70
2024/01/22 20:38:10;;;;;;;6.05;4.65;;;;;;;;;;10186206;28;20423;-70
2024/01/22 20:43:03;;;;;;;5.72;3.85;;;;;;;;;;10186666;28;20040;-71
2024/01/22 20:47:54;;;;;;;6.38;5.72;;;;;;;;;;10187072;28;20044;-70
2024/01/22 20:52:46;;;;;;;5.00;3.88;;;;;;;;;;10174738;28;20048;-71
2024/01/22 20:57:40;;;;;;;4.82;4.30;;;;;;;;;;10173341;28;20386;-70
2024/01/22 21:02:33;;;;;;;8.32;7.55;;;;;;;;;;10166640;28;20131;-70
2024/01/22 21:07:26;;;;;;;5.20;3.28;;;;;;;;;;10173119;28;20135;-70
2024/01/22 21:12:19;;;;;;;3.92;3.40;;;;;;;;;;10168999;28;20552;-69
2024/01/22 21:17:11;;;;;;;6.28;4.13;;;;;;;;;;10167289;28;20084;-70
2024/01/22 21:22:03;;;;;;;6.63;4.43;;;;;;;;;;10167699;28;20074;-70
2024/01/22 21:26:56;;;;;;;5.53;3.90;;;;;;;;;;10181206;28;20048;-70
2024/01/22 21:31:48;;;;;;;4.60;3.75;;;;;;;;;;10178201;28;20056;-72
2024/01/22 21:36:41;;;;;;;3.03;2.60;;;;;;;;;;10183187;28;20143;-72
2024/01/22 21:41:32;;;;;;;2.78;2.45;;;;;;;;;;10165401;28;20036;-70
2024/01/22 21:46:24;;;;;;;4.05;2.95;;;;;;;;;;10170041;28;20552;-70
2024/01/22 21:51:16;;;;;;;6.47;5.00;;;;;;;;;;10170052;28;20120;-69
2024/01/22 21:56:11;;;;;;;5.80;3.88;;;;;;;;;;10169970;28;20068;-70
2024/01/22 22:01:04;;;;;;;3.42;3.15;;;;;;;;;;10182354;28;20642;-70
2024/01/22 22:05:58;;;;;;;2.97;2.33;;;;;;;;;;10179398;28;20064;-70
2024/01/22 22:10:53;;;;;;;4.30;2.78;;;;;;;;;;10181121;28;20052;-70
2024/01/22 22:15:45;;;;;;;4.00;3.17;;;;;;;;;;10182484;28;20054;-70
2024/01/22 22:20:37;;;;;;;2.58;2.38;;;;;;;;;;10183199;28;20145;-70
2024/01/22 22:25:29;;;;;;;3.78;2.85;;;;;;;;;;10182272;28;20098;-71
2024/01/22 22:30:20;;;;;;;5.10;3.35;;;;;;;;;;10181479;28;20044;-70
2024/01/22 22:35:12;;;;;;;4.28;2.78;;;;;;;;;;10183329;28;20048;-70
2024/01/22 22:40:05;;;;;;;3.63;2.50;;;;;;;;;;10182730;28;20044;-69
2024/01/22 22:44:57;;;;;;;3.67;2.72;;;;;;;;;;10181644;28;20053;-70
2024/01/22 22:49:49;;;;;;;3.13;2.65;;;;;;;;;;10182219;28;20051;-70
2024/01/22 22:54:41;;;;;;;4.03;2.97;;;;;;;;;;10189371;28;20072;-70
2024/01/22 22:59:37;;;;;;;4.80;2.85;;;;;;;;;;10190345;28;20379;-70
2024/01/22 23:04:29;;;;;;;5.47;2.72;;;;;;;;;;10189581;28;20058;-69
2024/01/22 23:09:20;;;;;;;3.83;3.20;;;;;;;;;;10190803;28;20078;-70
2024/01/22 23:14:12;;;;;;;8.73;3.78;;;;;;;;;;10189212;28;20089;-70
2024/01/22 23:19:04;;;;;;;5.22;3.70;;;;;;;;;;10189581;28;20087;-70
2024/01/22 23:23:56;;;;;;;5.63;3.67;;;;;;;;;;10188227;28;20048;-70
2024/01/22 23:28:49;;;;;;;5.53;3.50;;;;;;;;;;10188550;28;20052;-69
2024/01/22 23:33:41;;;;;;;4.30;3.67;;;;;;;;;;10188514;28;20058;-70
2024/01/22 23:38:33;;;;;;;5.72;3.67;;;;;;;;;;10186149;28;20067;-70
2024/01/22 23:43:25;;;;;;;5.10;3.95;;;;;;;;;;10185116;28;20140;-70
2024/01/22 23:48:17;;;;;;;4.20;3.03;;;;;;;;;;10183393;28;20416;-70
2024/01/22 23:53:13;;;;;;;5.53;3.17;;;;;;;;;;10185417;28;20087;-70
2024/01/22 23:58:05;;;;;;;7.20;2.90;;;;;;;;;;10188085;28;20127;-70
